ADDS TAF Board (Experimental) INFO Settings
IDs: Format: Expanded Condensed

KMIA - Miami Intl, FL, US

Issued at 1133 UTC 26 Jun 2016
Updated at: 1144 UTC 26 Jun 2016
Time1053Z 26/12Z 26/13Z 26/14Z 26/15Z 26/16Z 26/17Z 26/18Z 26/19Z 26/20Z 26/21Z 26/22Z 26/23Z 27/00Z
Type OBS PRVL PRVL PRVL PRVL PRVL PRVL PRVL PRVL PRVL PRVL PRVL PRVL PRVL
VIS 10 >6 >6 >6 >6 >6 >6 >6 >6 >6 >6 >6 >6 >6
CIG -- -- -- -- -- -- -- -- -- -- -- -- -- --
Cover SCT SCT SCT SCT SCT SCT SCT SCT SCT SCT SCT SCT SCT SCT
FltCat VFR VFR VFR VFR VFR VFR VFR VFR VFR VFR VFR VFR VFR VFR
WX -- -- -- VCSH VCSH VCSH VCSH VCSH VCSH VCSH VCSH VCSH VCSH VCSH
WDir 100 100 100 110 110 110 110 110 110 110 110 110 110 110
WSpd 5 5 5 10 10 10 10 10 10 10 10 10 10 10
WGst -- -- -- -- -- -- -- -- -- -- -- -- -- --
R08/26
XWnd -1 -1 -1 -4 -4 -4 -4 -4 -4 -4 -4 -4 -4 -4
HWnd 5 5 5 9 9 9 9 9 9 9 9 9 9 9
R09/27
XWnd -1 -1 -1 -4 -4 -4 -4 -4 -4 -4 -4 -4 -4 -4
HWnd 5 5 5 9 9 9 9 9 9 9 9 9 9 9
R12/30
XWnd 2 2 2 2 2 2 2 2 2 2 2 2 2 2
HWnd 5 5 5 10 10 10 10 10 10 10 10 10 10 10

NOTE: TEMPO conditions in [brackets]. Keep in mind TEMPO conditions might be better (lower impact) than prevailing conditions.

Raw TAF
KMIA 261133Z 2612/2712 10005KT P6SM FEW020 SCT045
  FM261400 11010KT P6SM VCSH SCT030 SCT060
  FM270100 VRB03KT P6SM FEW030


Raw METAR
KMIA 261053Z 10005KT 10SM FEW022TCU FEW035 SCT250 27/24 A3008 RMK AO2 SLP184 TCU S T02720239
KMIA 260953Z 11005KT 10SM FEW022 FEW035 27/24 A3006 RMK AO2 SLP179 T02720239
KMIA 260853Z 11004KT 10SM FEW020 FEW030 SCT044 28/24 A3006 RMK AO2 SLP178 T02780239 56009

METAR Board
Radar Display
Forecast Discussion

TAF Board Legend

Potential Impact
Threat None Slight Moderate High
Visibility (sm) ≥5.1 5.1>X≥3 3>X≥1 <1
Ceiling (100 ft) ≥30.1 30.1>X≥10 10>X≥5 <5
Wind Speed (kt) <10 10≤X<20 20≤X<30 ≥30
Wind Gust (kt) <15 15≤X<25 25≤X<35 ≥35
Weather No Wx Reported VCTS,-TS,-FZRA,SN TS,FZRA +TS,+FZRA,+SN